Time;durP1;ratioP1;P1;durP2;ratioP2;P2;SDS_P1;SDS_P2;PMS_P1;PMS_P2;Temp;Humidity;BMP_temperature;BMP_pressure;BME280_temperature;BME280_humidity;BME280_pressure;Samples;Min_cycle;Max_cycle;Signal;HPM_P1;HPM_P2
2022/08/10 00:01:35;;;;;;;6.82;3.45;;;18.00;99.90;;;;;;5072135;28;20493;-90
2022/08/10 00:04:01;;;;;;;7.57;3.88;;;18.00;99.90;;;;;;5055166;28;20124;-90
2022/08/10 00:06:27;;;;;;;7.00;3.83;;;18.00;99.90;;;;;;5055147;28;20052;-90
2022/08/10 00:08:53;;;;;;;7.30;3.72;;;17.90;99.90;;;;;;5071512;28;20090;-90
2022/08/10 00:11:18;;;;;;;7.13;3.90;;;17.90;99.90;;;;;;5055025;28;20138;-90
2022/08/10 00:13:44;;;;;;;7.00;3.67;;;17.90;99.90;;;;;;5071695;28;20063;-90
2022/08/10 00:16:09;;;;;;;8.00;4.30;;;17.90;99.90;;;;;;5071765;28;20036;-90
2022/08/10 00:18:35;;;;;;;7.63;3.90;;;17.90;99.90;;;;;;5071935;28;20516;-90
2022/08/10 00:21:01;;;;;;;7.45;4.15;;;17.90;99.90;;;;;;5054169;28;20557;-90
2022/08/10 00:23:28;;;;;;;8.07;4.15;;;17.80;99.90;;;;;;5071102;28;20029;-90
2022/08/10 00:25:53;;;;;;;7.07;4.30;;;17.80;99.90;;;;;;5054838;28;20068;-91
2022/08/10 00:28:19;;;;;;;6.97;4.13;;;17.80;99.90;;;;;;5054930;28;20141;-90
2022/08/10 00:30:44;;;;;;;8.80;4.70;;;17.80;99.90;;;;;;5071370;28;20614;-90
2022/08/10 00:33:10;;;;;;;9.13;4.90;;;17.70;99.90;;;;;;5071498;28;20109;-90
2022/08/10 00:35:35;;;;;;;9.30;5.43;;;17.80;99.90;;;;;;5071067;28;20505;-90
2022/08/10 00:38:01;;;;;;;7.43;5.00;;;17.80;99.90;;;;;;5071307;28;20115;-90
2022/08/10 00:40:27;;;;;;;8.20;5.25;;;17.80;99.90;;;;;;5054728;28;20448;-91
2022/08/10 00:42:52;;;;;;;8.85;4.70;;;17.70;99.90;;;;;;5070681;28;20453;-90
2022/08/10 00:45:18;;;;;;;8.43;5.18;;;17.70;99.90;;;;;;5054607;28;20076;-90
2022/08/10 00:47:43;;;;;;;8.02;4.70;;;17.70;99.90;;;;;;5070940;28;20040;-90
2022/08/10 00:50:09;;;;;;;8.77;5.00;;;17.70;99.90;;;;;;5054348;28;20480;-90
2022/08/10 00:52:35;;;;;;;8.65;5.30;;;17.70;99.90;;;;;;5053617;28;20044;-90
2022/08/10 00:55:02;;;;;;;9.73;5.47;;;17.60;99.90;;;;;;5070982;28;20040;-90
2022/08/10 00:57:29;;;;;;;8.15;4.78;;;17.60;99.90;;;;;;5071231;28;20044;-90
2022/08/10 00:59:54;;;;;;;9.82;5.18;;;17.60;99.90;;;;;;5071736;28;20029;-90
2022/08/10 01:02:20;;;;;;;10.35;5.65;;;17.60;99.90;;;;;;5070681;28;20048;-90
2022/08/10 01:04:46;;;;;;;7.82;5.18;;;17.50;99.90;;;;;;5053944;28;20651;-90
2022/08/10 01:07:25;;;;;;;8.70;5.10;;;17.50;99.90;;;;;;5054185;28;20052;-91
2022/08/10 01:09:59;;;;;;;10.10;5.35;;;17.50;99.90;;;;;;5070675;28;20056;-90
2022/08/10 01:12:40;;;;;;;9.20;5.70;;;17.50;99.90;;;;;;5053774;28;20097;-90
2022/08/10 01:15:15;;;;;;;8.63;6.30;;;17.50;99.90;;;;;;5053969;28;20595;-90
2022/08/10 01:18:01;;;;;;;9.20;6.15;;;17.40;99.90;;;;;;5054212;28;20097;-90
2022/08/10 01:20:41;;;;;;;9.07;5.68;;;17.40;99.90;;;;;;5052979;28;20052;-90
2022/08/10 01:23:41;;;;;;;8.13;5.75;;;17.30;99.90;;;;;;5070581;28;20059;-90
2022/08/10 01:26:47;;;;;;;8.55;5.50;;;17.30;99.90;;;;;;5070271;28;20102;-90
2022/08/10 01:29:35;;;;;;;9.57;5.78;;;17.20;99.90;;;;;;5049970;28;20113;-90
2022/08/10 01:32:06;;;;;;;8.18;5.38;;;17.20;99.90;;;;;;5069664;28;20052;-89
2022/08/10 01:34:56;;;;;;;9.07;6.13;;;17.10;99.90;;;;;;5070505;28;20488;-90
2022/08/10 01:37:28;;;;;;;9.70;6.68;;;17.10;99.90;;;;;;5070222;28;20572;-89
2022/08/10 01:39:57;;;;;;;9.50;6.90;;;17.10;99.90;;;;;;5070188;28;20044;-89
2022/08/10 01:42:23;;;;;;;9.60;6.93;;;17.10;99.90;;;;;;5069110;28;20036;-90
2022/08/10 01:44:54;;;;;;;9.38;6.25;;;17.10;99.90;;;;;;5070086;28;20082;-89
2022/08/10 01:50:17;;;;;;;9.00;6.63;;;17.00;99.90;;;;;;5048868;28;20047;-89
2022/08/10 01:52:47;;;;;;;9.65;6.93;;;17.00;99.90;;;;;;5069499;28;20046;-89
2022/08/10 01:55:13;;;;;;;10.95;7.70;;;17.00;99.90;;;;;;5069812;28;20044;-90
2022/08/10 01:57:41;;;;;;;10.55;7.35;;;17.00;99.90;;;;;;5053083;28;20055;-90
2022/08/10 02:00:08;;;;;;;10.95;7.50;;;17.00;99.90;;;;;;5069507;28;20038;-89
2022/08/10 02:02:36;;;;;;;10.05;6.97;;;17.00;99.90;;;;;;5069239;28;20036;-89
2022/08/10 02:05:05;;;;;;;9.82;6.78;;;17.00;99.90;;;;;;5069146;28;20691;-89
2022/08/10 02:07:32;;;;;;;10.30;7.25;;;17.00;99.90;;;;;;5053103;28;20040;-90
2022/08/10 02:10:02;;;;;;;11.85;8.77;;;17.00;99.90;;;;;;5069853;28;20405;-90
2022/08/10 02:12:31;;;;;;;12.23;8.23;;;17.00;99.90;;;;;;5052457;28;20549;-90
2022/08/10 02:15:05;;;;;;;12.05;8.77;;;17.00;99.90;;;;;;5069632;28;20036;-90
2022/08/10 02:17:37;;;;;;;11.95;8.18;;;17.00;99.90;;;;;;5052243;28;20489;-89
2022/08/10 02:20:11;;;;;;;11.85;8.93;;;17.00;99.90;;;;;;5069634;28;20127;-89
2022/08/10 02:22:39;;;;;;;11.15;8.40;;;17.00;99.90;;;;;;5069486;28;20115;-90
2022/08/10 02:25:07;;;;;;;10.20;7.63;;;17.00;99.90;;;;;;5068939;28;20037;-90
2022/08/10 02:27:34;;;;;;;10.30;7.90;;;16.90;99.90;;;;;;5052009;28;20535;-89
2022/08/10 02:30:02;;;;;;;11.93;8.50;;;16.90;99.90;;;;;;5051291;28;20036;-89
2022/08/10 02:32:31;;;;;;;12.90;9.02;;;16.90;99.90;;;;;;5051922;28;20052;-89
2022/08/10 02:34:59;;;;;;;12.65;8.50;;;16.90;99.90;;;;;;5068580;28;20048;-90
2022/08/10 02:37:26;;;;;;;13.68;9.40;;;16.80;99.90;;;;;;5052653;28;20051;-91
2022/08/10 02:39:52;;;;;;;10.95;8.52;;;16.90;99.90;;;;;;5052109;28;20050;-90
2022/08/10 02:42:30;;;;;;;13.60;9.15;;;16.80;99.90;;;;;;5052291;28;20579;-90
2022/08/10 02:45:13;;;;;;;12.48;8.93;;;16.80;99.90;;;;;;5069310;28;20044;-90
2022/08/10 02:47:43;;;;;;;12.43;9.65;;;16.80;99.90;;;;;;5055383;28;20052;-89
2022/08/10 02:50:20;;;;;;;12.95;9.10;;;16.80;99.90;;;;;;5073014;28;20409;-89
2022/08/10 02:52:53;;;;;;;13.95;9.88;;;16.80;99.90;;;;;;5056400;28;20505;-89
2022/08/10 02:55:26;;;;;;;10.30;4.72;;;16.80;99.90;;;;;;5072997;28;20044;-89
2022/08/10 02:57:56;;;;;;;11.65;9.00;;;16.70;99.90;;;;;;5073012;28;20045;-89
2022/08/10 03:00:24;;;;;;;13.02;9.70;;;16.70;99.90;;;;;;5056324;28;20054;-89
2022/08/10 03:02:51;;;;;;;12.43;9.45;;;16.70;99.90;;;;;;5072679;28;20044;-89
2022/08/10 03:05:18;;;;;;;11.13;8.98;;;16.60;99.90;;;;;;5056437;28;20121;-90
2022/08/10 03:07:59;;;;;;;13.82;9.52;;;16.70;99.90;;;;;;5072588;28;20043;-89
2022/08/10 03:10:28;;;;;;;12.90;9.77;;;16.60;99.90;;;;;;5073091;28;20028;-89
2022/08/10 03:12:57;;;;;;;11.43;5.88;;;16.60;99.90;;;;;;5055935;28;20036;-90
2022/08/10 03:15:24;;;;;;;12.45;10.23;;;16.50;99.90;;;;;;5072936;28;20049;-90
2022/08/10 03:17:52;;;;;;;12.10;9.48;;;16.50;99.90;;;;;;5072927;28;20048;-90
2022/08/10 03:20:20;;;;;;;12.88;10.13;;;16.50;99.90;;;;;;5072299;28;20075;-89
2022/08/10 03:22:49;;;;;;;15.18;10.13;;;16.50;99.90;;;;;;5072044;28;20041;-90
2022/08/10 03:25:17;;;;;;;12.57;9.48;;;16.50;99.90;;;;;;5055912;28;20451;-89
2022/08/10 03:27:44;;;;;;;12.20;10.35;;;16.50;99.90;;;;;;5072429;28;20040;-89
2022/08/10 03:30:10;;;;;;;12.95;9.90;;;16.40;99.90;;;;;;5055426;28;20040;-89
2022/08/10 03:32:37;;;;;;;13.73;10.10;;;16.40;99.90;;;;;;5055178;28;20086;-89
2022/08/10 03:35:05;;;;;;;13.48;10.77;;;16.40;99.90;;;;;;5072517;28;20498;-90
2022/08/10 03:37:31;;;;;;;13.75;10.10;;;16.40;99.90;;;;;;5055658;28;20052;-90
2022/08/10 03:39:57;;;;;;;11.50;9.75;;;16.40;99.90;;;;;;5072350;28;20425;-89
2022/08/10 03:42:23;;;;;;;13.65;10.45;;;16.40;99.90;;;;;;5071635;28;20040;-90
2022/08/10 03:44:51;;;;;;;13.13;10.18;;;16.40;99.90;;;;;;5072083;28;20193;-90
2022/08/10 03:47:18;;;;;;;13.55;10.68;;;16.30;99.90;;;;;;5072045;28;20101;-89
2022/08/10 03:49:46;;;;;;;13.50;10.70;;;16.30;99.90;;;;;;5055575;28;20547;-90
2022/08/10 03:52:14;;;;;;;13.93;11.07;;;16.30;99.90;;;;;;5054959;28;20497;-89
2022/08/10 03:54:40;;;;;;;13.48;10.35;;;16.30;99.90;;;;;;5055796;28;20044;-90
2022/08/10 03:57:06;;;;;;;12.85;10.65;;;16.30;99.90;;;;;;5054663;28;20136;-89
2022/08/10 03:59:34;;;;;;;13.52;11.00;;;16.30;99.90;;;;;;5054649;28;20177;-90
2022/08/10 04:02:00;;;;;;;11.45;9.75;;;16.30;99.90;;;;;;5071450;28;20401;-89
2022/08/10 04:04:26;;;;;;;13.90;11.05;;;16.30;99.90;;;;;;5071483;28;20130;-89
2022/08/10 04:06:57;;;;;;;12.55;6.68;;;16.20;99.90;;;;;;5055760;28;20091;-89
2022/08/10 04:09:28;;;;;;;12.45;10.13;;;16.20;99.90;;;;;;5055097;28;20036;-89
2022/08/10 04:11:53;;;;;;;12.40;10.23;;;16.20;99.90;;;;;;5054865;28;20044;-90
2022/08/10 04:14:19;;;;;;;13.55;10.77;;;16.20;99.90;;;;;;5071708;28;20052;-89
2022/08/10 04:16:44;;;;;;;13.50;10.57;;;16.20;99.90;;;;;;5054852;28;20036;-89
2022/08/10 04:19:11;;;;;;;13.77;10.52;;;16.20;99.90;;;;;;5054915;28;20055;-90
2022/08/10 04:21:41;;;;;;;12.10;10.32;;;16.20;99.90;;;;;;5054477;28;20040;-90
2022/08/10 04:24:10;;;;;;;14.15;11.20;;;16.10;99.90;;;;;;5071313;28;20040;-90
2022/08/10 04:26:37;;;;;;;12.52;11.15;;;16.20;99.90;;;;;;5071294;28;20131;-89
2022/08/10 04:29:02;;;;;;;13.52;12.05;;;16.20;99.90;;;;;;5071183;28;20052;-89
2022/08/10 04:31:31;;;;;;;14.38;11.88;;;16.20;99.90;;;;;;5054657;28;20045;-89
2022/08/10 04:33:58;;;;;;;13.60;11.73;;;16.10;99.90;;;;;;5071117;28;20052;-90
2022/08/10 04:36:24;;;;;;;13.15;11.57;;;16.10;99.90;;;;;;5071169;28;20079;-90
2022/08/10 04:38:51;;;;;;;14.52;11.98;;;16.10;99.90;;;;;;5071269;28;20036;-90
2022/08/10 04:41:17;;;;;;;14.23;11.68;;;16.10;99.90;;;;;;5070973;28;20516;-90
2022/08/10 04:43:43;;;;;;;14.52;11.30;;;16.10;99.90;;;;;;5054215;28;20040;-90
2022/08/10 04:46:09;;;;;;;13.70;12.13;;;16.20;99.90;;;;;;5071176;28;20047;-90
2022/08/10 04:48:35;;;;;;;13.68;11.52;;;16.10;99.90;;;;;;5070941;28;20055;-90
2022/08/10 04:51:00;;;;;;;13.30;7.18;;;16.10;99.90;;;;;;5054315;28;20045;-89
2022/08/10 04:53:26;;;;;;;14.40;11.52;;;16.10;99.90;;;;;;5070806;28;20131;-90
2022/08/10 04:55:52;;;;;;;14.98;11.18;;;16.00;99.90;;;;;;5070490;28;20115;-90
2022/08/10 04:58:17;;;;;;;13.65;11.63;;;16.10;99.90;;;;;;5070104;28;20128;-90
2022/08/10 05:00:43;;;;;;;13.43;7.32;;;16.10;99.90;;;;;;5071997;28;20036;-91
2022/08/10 05:03:08;;;;;;;14.18;11.50;;;16.00;99.90;;;;;;5053109;28;20405;-90
2022/08/10 05:05:34;;;;;;;13.93;12.18;;;16.00;99.90;;;;;;5071895;28;20036;-89
2022/08/10 05:08:00;;;;;;;14.45;11.52;;;16.10;99.90;;;;;;5054374;28;20518;-89
2022/08/10 05:10:25;;;;;;;14.90;12.40;;;16.10;99.90;;;;;;5053239;28;20498;-89
2022/08/10 05:12:51;;;;;;;11.82;7.25;;;16.10;99.90;;;;;;5033643;28;20415;-89
2022/08/10 05:15:18;;;;;;;16.17;11.77;;;16.10;99.90;;;;;;5034051;28;20131;-89
2022/08/10 05:17:44;;;;;;;13.85;12.05;;;16.10;99.90;;;;;;5050392;28;20040;-90
2022/08/10 05:20:11;;;;;;;14.45;12.38;;;16.20;99.90;;;;;;5050880;28;20037;-90
2022/08/10 05:22:39;;;;;;;13.80;12.05;;;16.20;99.90;;;;;;5049949;28;20051;-89
2022/08/10 05:25:08;;;;;;;13.43;11.60;;;16.20;99.90;;;;;;5033296;28;20120;-90
2022/08/10 05:27:34;;;;;;;14.48;12.10;;;16.20;99.90;;;;;;5049969;28;20040;-90
2022/08/10 05:29:59;;;;;;;13.35;11.95;;;16.30;99.90;;;;;;5033503;28;20052;-90
2022/08/10 05:32:25;;;;;;;13.43;11.32;;;16.30;99.90;;;;;;5049747;28;20041;-90
2022/08/10 05:34:51;;;;;;;12.52;7.35;;;16.30;99.90;;;;;;5050431;28;20037;-90
2022/08/10 05:37:18;;;;;;;14.25;11.27;;;16.30;99.90;;;;;;5033616;28;20044;-90
2022/08/10 05:39:45;;;;;;;15.15;12.07;;;16.30;99.90;;;;;;5051046;28;20052;-90
2022/08/10 05:42:10;;;;;;;16.20;12.70;;;16.40;99.90;;;;;;5049702;28;20037;-90
2022/08/10 05:44:36;;;;;;;15.23;12.23;;;16.40;99.90;;;;;;5051841;28;20044;-90
2022/08/10 05:47:02;;;;;;;13.73;11.50;;;16.40;99.90;;;;;;5069254;28;20048;-90
2022/08/10 05:49:28;;;;;;;12.75;8.20;;;16.50;99.90;;;;;;5070049;28;20224;-90
2022/08/10 05:51:54;;;;;;;13.63;11.35;;;16.50;99.90;;;;;;5053042;28;20586;-90
2022/08/10 05:54:19;;;;;;;14.32;10.85;;;16.50;99.90;;;;;;5069591;28;20048;-90
2022/08/10 05:56:47;;;;;;;15.23;12.90;;;16.60;99.90;;;;;;5069626;28;20044;-90
2022/08/10 05:59:14;;;;;;;13.98;11.52;;;16.60;99.90;;;;;;5052479;28;20083;-90
2022/08/10 06:01:43;;;;;;;13.80;11.73;;;16.70;99.90;;;;;;5050579;28;20033;-90
2022/08/10 06:04:14;;;;;;;15.70;11.52;;;16.80;99.90;;;;;;5060984;28;20037;-91
2022/08/10 06:06:44;;;;;;;13.13;11.27;;;16.80;99.90;;;;;;5069793;28;20067;-90
2022/08/10 06:09:10;;;;;;;15.20;11.40;;;16.80;99.90;;;;;;5065999;28;20051;-90
2022/08/10 06:11:37;;;;;;;12.93;11.18;;;16.90;99.90;;;;;;5069380;28;20037;-90
2022/08/10 06:16:50;;;;;;;12.32;10.88;;;17.00;99.90;;;;;;5069486;28;20053;-91
2022/08/10 06:19:16;;;;;;;12.30;10.25;;;17.00;99.90;;;;;;5069331;28;20036;-90
2022/08/10 06:21:43;;;;;;;12.02;10.48;;;17.10;99.90;;;;;;5068637;28;20089;-90
2022/08/10 06:24:10;;;;;;;13.65;11.43;;;17.20;99.90;;;;;;5052477;28;20044;-90
2022/08/10 06:26:36;;;;;;;12.85;10.10;;;17.30;99.90;;;;;;5069155;28;20045;-90
2022/08/10 06:29:12;;;;;;;13.20;10.77;;;17.30;99.90;;;;;;5054690;28;20044;-90
2022/08/10 06:31:41;;;;;;;12.88;10.05;;;17.40;99.90;;;;;;5032283;28;20064;-90
2022/08/10 06:34:09;;;;;;;13.88;10.52;;;17.50;99.90;;;;;;5049573;28;20118;-90
2022/08/10 06:36:36;;;;;;;13.48;9.95;;;17.50;99.90;;;;;;5049845;28;20112;-90
2022/08/10 06:39:03;;;;;;;13.38;9.55;;;17.60;99.90;;;;;;5048899;28;20403;-90
2022/08/10 06:41:32;;;;;;;12.55;10.02;;;17.70;99.90;;;;;;5048570;28;20037;-90
2022/08/10 06:44:08;;;;;;;11.10;9.68;;;17.70;99.90;;;;;;5032857;28;20029;-90
2022/08/10 06:46:38;;;;;;;12.38;9.07;;;17.80;99.90;;;;;;5032713;28;20045;-90
2022/08/10 06:49:07;;;;;;;12.25;9.65;;;17.90;99.90;;;;;;5049182;28;20123;-90
2022/08/10 06:51:36;;;;;;;12.43;9.60;;;18.00;99.90;;;;;;5034097;28;20073;-90
2022/08/10 06:54:08;;;;;;;12.23;9.73;;;18.10;99.90;;;;;;5057408;28;20041;-90
2022/08/10 06:56:39;;;;;;;10.95;6.60;;;18.10;99.90;;;;;;5041246;28;20059;-90
2022/08/10 06:59:10;;;;;;;10.18;8.68;;;18.20;99.90;;;;;;5058278;28;20132;-90
2022/08/10 07:01:38;;;;;;;11.07;8.40;;;18.20;99.90;;;;;;5052136;28;20090;-90
2022/08/10 07:04:33;;;;;;;12.27;8.43;;;18.40;99.90;;;;;;5052620;28;20473;-90
2022/08/10 07:07:01;;;;;;;10.32;8.15;;;18.50;99.90;;;;;;5050259;28;20471;-90
2022/08/10 07:09:28;;;;;;;10.30;7.45;;;18.50;99.90;;;;;;5069181;28;20044;-90
2022/08/10 07:11:56;;;;;;;10.25;7.88;;;18.60;99.90;;;;;;5069119;28;20506;-90
2022/08/10 07:14:23;;;;;;;11.55;7.80;;;18.70;99.90;;;;;;5068907;28;20041;-91
2022/08/10 07:16:50;;;;;;;11.15;7.15;;;18.80;99.90;;;;;;5068794;28;20043;-90
2022/08/10 07:19:18;;;;;;;11.02;7.43;;;18.80;99.90;;;;;;5069166;28;20040;-90
2022/08/10 07:21:45;;;;;;;11.90;7.22;;;18.90;99.90;;;;;;5068713;28;20516;-90
2022/08/10 07:24:13;;;;;;;11.90;6.88;;;19.00;99.90;;;;;;5068915;28;20040;-90
2022/08/10 07:26:47;;;;;;;10.13;6.93;;;19.10;99.90;;;;;;5070343;28;20075;-90
2022/08/10 07:29:14;;;;;;;9.25;6.38;;;19.10;99.90;;;;;;5069270;28;20111;-90
2022/08/10 07:31:41;;;;;;;9.80;5.53;;;19.20;99.90;;;;;;5068367;28;20043;-91
2022/08/10 07:34:08;;;;;;;10.23;5.75;;;19.30;99.90;;;;;;5072397;28;20497;-91
2022/08/10 07:36:37;;;;;;;9.20;5.93;;;19.40;99.90;;;;;;5072449;28;20040;-91
2022/08/10 07:39:04;;;;;;;9.80;5.95;;;19.40;99.90;;;;;;5055509;28;20052;-90
2022/08/10 07:41:31;;;;;;;11.15;6.57;;;19.60;99.90;;;;;;5071620;28;20036;-91
2022/08/10 07:44:04;;;;;;;10.10;6.38;;;19.60;99.90;;;;;;5071850;28;20037;-91
2022/08/10 07:46:32;;;;;;;10.05;6.53;;;19.70;99.90;;;;;;5054961;28;20036;-91
2022/08/10 07:49:08;;;;;;;10.18;6.90;;;19.80;99.90;;;;;;5072276;28;20036;-89
2022/08/10 07:51:35;;;;;;;9.35;5.72;;;19.90;99.90;;;;;;5055412;28;20037;-91
2022/08/10 07:54:04;;;;;;;10.77;5.88;;;19.90;99.90;;;;;;5055067;28;20055;-91
2022/08/10 07:56:31;;;;;;;10.18;6.85;;;20.00;99.90;;;;;;5071385;28;20097;-91
2022/08/10 07:59:09;;;;;;;11.50;6.50;;;20.10;99.90;;;;;;5072003;28;20037;-91
2022/08/10 08:01:40;;;;;;;12.10;5.97;;;20.20;99.90;;;;;;5073011;28;20064;-90
2022/08/10 08:04:08;;;;;;;9.20;5.75;;;20.20;99.90;;;;;;5073030;28;20043;-90
2022/08/10 08:06:35;;;;;;;10.43;6.55;;;20.30;99.90;;;;;;5073000;28;20094;-90
2022/08/10 08:09:03;;;;;;;12.30;6.22;;;20.40;99.90;;;;;;5054966;28;20037;-90
2022/08/10 08:11:29;;;;;;;8.63;5.35;;;20.40;99.90;;;;;;5071740;28;20523;-90
2022/08/10 08:13:56;;;;;;;9.73;5.35;;;20.50;99.90;;;;;;5054284;28;20044;-90
2022/08/10 08:16:23;;;;;;;8.88;5.20;;;20.60;99.90;;;;;;5070851;28;20056;-90
2022/08/10 08:18:52;;;;;;;10.40;5.30;;;20.60;99.90;;;;;;5055242;28;20036;-90
2022/08/10 08:21:18;;;;;;;8.40;5.43;;;20.70;99.90;;;;;;5054710;28;20036;-91
2022/08/10 08:23:45;;;;;;;10.13;5.47;;;20.80;99.90;;;;;;5071553;28;20036;-90
2022/08/10 08:26:12;;;;;;;9.75;5.50;;;20.90;99.90;;;;;;5054792;28;20051;-90
2022/08/10 08:28:39;;;;;;;9.88;5.20;;;20.90;99.90;;;;;;5060628;28;20048;-91
2022/08/10 08:31:05;;;;;;;10.95;5.45;;;21.00;99.90;;;;;;5050946;28;20041;-91
2022/08/10 08:33:33;;;;;;;9.48;5.90;;;21.10;99.90;;;;;;5034708;28;20045;-91
2022/08/10 08:35:59;;;;;;;9.65;5.00;;;21.10;99.90;;;;;;5051600;28;20110;-91
2022/08/10 08:38:25;;;;;;;8.55;4.90;;;21.20;99.90;;;;;;5034287;28;20044;-91
2022/08/10 08:41:18;;;;;;;11.00;5.13;;;21.30;99.90;;;;;;5034650;28;20097;-90
2022/08/10 08:44:08;;;;;;;9.20;4.68;;;21.40;99.90;;;;;;5050542;28;20098;-91
2022/08/10 08:47:29;;;;;;;9.20;4.10;;;21.40;99.90;;;;;;5051562;28;20048;-91
2022/08/10 08:49:57;;;;;;;8.50;4.50;;;21.60;99.90;;;;;;4993243;28;20119;-91
2022/08/10 08:52:44;;;;;;;8.15;4.20;;;21.60;99.90;;;;;;5046596;28;20106;-91
2022/08/10 08:55:25;;;;;;;7.65;4.18;;;21.70;99.90;;;;;;5034440;28;20410;-91
2022/08/10 08:58:04;;;;;;;9.20;4.50;;;21.80;99.90;;;;;;5051152;28;20124;-92
2022/08/10 09:00:46;;;;;;;9.98;4.70;;;21.90;99.90;;;;;;5050501;28;20049;-91
2022/08/10 09:03:37;;;;;;;8.07;4.47;;;22.00;99.90;;;;;;5034152;28;20059;-90
2022/08/10 09:06:31;;;;;;;9.48;4.57;;;22.10;99.90;;;;;;5050690;28;20052;-90
2022/08/10 09:09:42;;;;;;;11.40;3.92;;;22.20;99.90;;;;;;5050707;28;20049;-90
2022/08/10 09:12:32;;;;;;;9.38;3.72;;;22.30;99.90;;;;;;5050276;28;20080;-91
2022/08/10 09:15:10;;;;;;;10.75;5.45;;;22.40;99.90;;;;;;5033782;28;20043;-91
2022/08/10 09:17:53;;;;;;;7.93;3.72;;;22.50;99.90;;;;;;5050652;28;20071;-91
2022/08/10 09:20:34;;;;;;;6.88;3.13;;;22.60;99.90;;;;;;5034067;28;20039;-91
2022/08/10 09:23:12;;;;;;;8.77;3.63;;;22.70;99.90;;;;;;5049792;28;20037;-91
2022/08/10 09:25:47;;;;;;;8.73;3.30;;;22.80;99.90;;;;;;5050873;28;20037;-92
2022/08/10 09:28:25;;;;;;;7.65;3.25;;;22.90;99.90;;;;;;5052248;28;20413;-91
2022/08/10 09:31:02;;;;;;;7.68;2.92;;;23.00;99.90;;;;;;5053427;28;20040;-91
2022/08/10 09:33:46;;;;;;;8.07;2.90;;;23.10;99.90;;;;;;5070609;28;20076;-91
2022/08/10 09:36:18;;;;;;;7.78;3.00;;;23.20;99.90;;;;;;5069219;28;20049;-91
2022/08/10 09:38:57;;;;;;;7.30;2.80;;;23.20;99.90;;;;;;5070219;28;20032;-92
2022/08/10 09:41:43;;;;;;;8.20;2.92;;;23.30;99.90;;;;;;5052819;28;20029;-91
2022/08/10 09:44:40;;;;;;;7.50;2.90;;;23.40;99.90;;;;;;5070305;28;20040;-91
2022/08/10 09:47:35;;;;;;;8.18;2.85;;;23.50;99.90;;;;;;5070093;28;20106;-91
2022/08/10 09:50:07;;;;;;;8.50;3.08;;;23.60;99.90;;;;;;5053205;28;20268;-90
2022/08/10 09:53:04;;;;;;;7.80;2.70;;;23.70;99.90;;;;;;5069052;28;20032;-91
2022/08/10 09:56:07;;;;;;;7.35;2.47;;;23.80;99.90;;;;;;5069161;28;20080;-91
2022/08/10 09:58:44;;;;;;;6.18;2.03;;;23.90;99.90;;;;;;5059587;28;20037;-91
2022/08/10 10:01:37;;;;;;;7.25;2.20;;;24.00;99.90;;;;;;5060153;28;20097;-91
2022/08/10 10:04:28;;;;;;;7.82;2.22;;;24.10;99.90;;;;;;5058670;28;20075;-91
2022/08/10 10:06:57;;;;;;;9.25;3.20;;;24.20;99.90;;;;;;5043790;28;20040;-92
2022/08/10 10:09:37;;;;;;;8.57;2.80;;;24.20;99.90;;;;;;5059590;28;20525;-91
2022/08/10 10:12:27;;;;;;;7.30;2.65;;;24.40;99.10;;;;;;5061257;28;20493;-91
2022/08/10 10:15:19;;;;;;;6.30;2.08;;;24.40;97.70;;;;;;5068663;28;20041;-91
2022/08/10 10:18:03;;;;;;;5.25;1.80;;;24.50;96.00;;;;;;5070580;28;20033;-91
2022/08/10 10:20:38;;;;;;;7.40;1.88;;;24.60;95.70;;;;;;5052914;28;20482;-92
2022/08/10 10:23:22;;;;;;;6.30;1.42;;;24.70;94.30;;;;;;5052431;28;20064;-92
2022/08/10 10:26:00;;;;;;;5.32;1.60;;;24.80;92.60;;;;;;5053192;28;20087;-92
2022/08/10 10:28:44;;;;;;;6.22;1.67;;;24.80;91.30;;;;;;5052246;28;20441;-91
2022/08/10 10:31:53;;;;;;;5.88;1.70;;;25.00;88.30;;;;;;5069528;28;20037;-92
2022/08/10 10:34:25;;;;;;;5.72;1.70;;;25.00;90.30;;;;;;5068916;28;20513;-91
2022/08/10 10:36:51;;;;;;;6.65;1.80;;;25.10;91.80;;;;;;5066334;28;20115;-91
2022/08/10 10:39:20;;;;;;;5.65;1.70;;;25.20;90.50;;;;;;5036848;28;20064;-91
2022/08/10 10:42:00;;;;;;;4.97;1.50;;;25.30;87.80;;;;;;5049037;28;20432;-91
2022/08/10 10:44:44;;;;;;;5.53;1.70;;;25.40;85.10;;;;;;5049260;28;20037;-91
2022/08/10 10:47:47;;;;;;;6.00;2.00;;;25.40;86.40;;;;;;5049020;28;20534;-91
2022/08/10 10:50:52;;;;;;;4.80;1.77;;;25.50;81.10;;;;;;5032721;28;21044;-91
2022/08/10 10:53:35;;;;;;;5.47;1.55;;;25.60;83.70;;;;;;4975969;28;20132;-92
2022/08/10 10:56:13;;;;;;;6.18;1.88;;;25.70;81.80;;;;;;5029042;28;20060;-91
2022/08/10 10:59:16;;;;;;;6.97;2.10;;;25.80;78.70;;;;;;5049214;28;20032;-91
2022/08/10 11:01:58;;;;;;;;;;;25.80;78.60;;;;;;5032452;28;20445;-91
2022/08/10 11:04:33;;;;;;;7.15;1.90;;;25.90;84.30;;;;;;5032734;28;19951;-91
2022/08/10 11:07:13;;;;;;;5.05;1.83;;;25.90;79.20;;;;;;5049777;28;20052;-91
2022/08/10 11:09:47;;;;;;;6.72;1.92;;;26.10;72.90;;;;;;5053249;28;20496;-91
2022/08/10 11:12:25;;;;;;;4.28;1.40;;;26.20;70.10;;;;;;5052278;28;20072;-92
2022/08/10 11:15:15;;;;;;;5.63;1.33;;;26.30;71.50;;;;;;5036182;28;20049;-92
2022/08/10 11:18:02;;;;;;;6.97;1.90;;;26.40;73.20;;;;;;5035542;28;20053;-92
2022/08/10 11:20:41;;;;;;;3.88;1.50;;;26.50;72.90;;;;;;5036124;28;20603;-91
2022/08/10 11:23:44;;;;;;;6.55;1.73;;;26.60;69.70;;;;;;5052673;28;20041;-92
2022/08/10 11:26:29;;;;;;;4.95;2.00;;;26.80;71.10;;;;;;5073390;28;20506;-91
2022/08/10 11:29:37;;;;;;;4.38;1.58;;;26.80;70.20;;;;;;5073314;28;20090;-91
2022/08/10 11:32:12;;;;;;;7.43;1.60;;;26.90;69.60;;;;;;5033764;28;20406;-91
2022/08/10 11:34:59;;;;;;;4.95;1.70;;;27.00;70.20;;;;;;5018055;28;20037;-91
2022/08/10 11:37:54;;;;;;;6.35;1.98;;;27.10;71.50;;;;;;5017515;28;20140;-91
2022/08/10 11:40:38;;;;;;;4.63;1.58;;;27.30;70.70;;;;;;5017826;28;20052;-91
2022/08/10 11:43:18;;;;;;;6.43;1.77;;;27.40;67.10;;;;;;5050637;28;20518;-91
2022/08/10 11:45:52;;;;;;;7.15;1.75;;;27.50;67.40;;;;;;5018183;28;20040;-91
2022/08/10 11:48:36;;;;;;;5.50;1.60;;;27.50;65.10;;;;;;5017602;28;20041;-91
2022/08/10 11:51:07;;;;;;;6.47;1.67;;;27.60;64.80;;;;;;5033968;28;20048;-91
2022/08/10 11:53:35;;;;;;;5.80;1.60;;;27.70;65.60;;;;;;5034396;28;20179;-91
2022/08/10 11:56:01;;;;;;;6.32;1.60;;;27.90;66.10;;;;;;5034501;28;20132;-91
2022/08/10 12:01:23;;;;;;;3.78;1.40;;;28.10;60.20;;;;;;5034188;28;20399;-90
2022/08/10 12:03:49;;;;;;;9.68;1.90;;;28.20;61.70;;;;;;5069135;28;20053;-91
2022/08/10 12:06:17;;;;;;;5.47;1.45;;;28.40;60.00;;;;;;5071727;28;20085;-91
2022/08/10 12:08:46;;;;;;;4.68;1.67;;;28.50;58.30;;;;;;5072043;28;20048;-91
2022/08/10 12:11:15;;;;;;;5.07;1.52;;;28.60;58.20;;;;;;5071359;28;20052;-91
2022/08/10 12:14:04;;;;;;;5.00;1.90;;;28.80;59.00;;;;;;5071560;28;20044;-91
2022/08/10 12:16:35;;;;;;;4.45;1.40;;;28.90;58.30;;;;;;5071850;28;20037;-91
2022/08/10 12:19:13;;;;;;;5.38;1.60;;;29.00;58.00;;;;;;5053474;28;20072;-91
2022/08/10 12:22:14;;;;;;;5.15;1.58;;;29.10;57.80;;;;;;5072622;28;20040;-91
2022/08/10 12:25:06;;;;;;;7.68;1.67;;;29.30;58.40;;;;;;5049701;28;20083;-92
2022/08/10 12:27:40;;;;;;;4.73;1.40;;;29.40;55.60;;;;;;5054858;28;20048;-92
2022/08/10 12:30:12;;;;;;;5.38;1.52;;;29.50;55.40;;;;;;5071793;28;20071;-91
2022/08/10 12:33:01;;;;;;;7.40;1.83;;;29.50;56.40;;;;;;5054624;28;20452;-92
2022/08/10 12:36:01;;;;;;;5.38;1.45;;;29.70;56.50;;;;;;5071299;28;20052;-92
2022/08/10 12:38:45;;;;;;;5.82;1.55;;;29.90;55.10;;;;;;5071748;28;20498;-91
2022/08/10 12:41:28;;;;;;;5.57;1.38;;;30.00;54.10;;;;;;5054681;28;20055;-91
2022/08/10 12:44:19;;;;;;;5.47;1.58;;;30.00;53.20;;;;;;5072690;28;20040;-92
2022/08/10 12:46:55;;;;;;;7.53;1.85;;;30.10;51.80;;;;;;5070835;28;20059;-89
2022/08/10 12:49:40;;;;;;;4.95;1.52;;;30.20;52.50;;;;;;5072208;28;20044;-92
2022/08/10 12:52:30;;;;;;;5.13;1.30;;;30.40;53.40;;;;;;5069988;28;20040;-93
2022/08/10 12:54:58;;;;;;;5.00;1.50;;;30.60;52.80;;;;;;5070640;28;20135;-92
2022/08/10 12:57:25;;;;;;;6.10;1.60;;;30.70;52.50;;;;;;5070570;28;20040;-92
2022/08/10 12:59:55;;;;;;;4.10;1.23;;;30.70;51.30;;;;;;5049328;28;20094;-92
2022/08/10 13:02:28;;;;;;;4.32;1.42;;;30.90;51.70;;;;;;5060653;28;20033;-92
2022/08/10 13:04:57;;;;;;;7.22;2.00;;;31.00;51.10;;;;;;5059137;28;20049;-92
2022/08/10 13:07:31;;;;;;;4.47;1.50;;;31.10;51.80;;;;;;5045168;28;20098;-92
2022/08/10 13:10:03;;;;;;;6.05;1.70;;;31.10;50.70;;;;;;5070601;28;20044;-92
2022/08/10 13:12:30;;;;;;;;;;;31.20;50.00;;;;;;5046873;28;20059;-92
2022/08/10 13:15:30;;;;;;;5.63;1.50;;;31.30;50.80;;;;;;5059468;28;19963;-92
2022/08/10 13:18:00;;;;;;;5.65;1.50;;;31.40;49.30;;;;;;5034412;28;20057;-92
2022/08/10 13:20:29;;;;;;;3.72;1.30;;;31.50;49.00;;;;;;5033976;28;20041;-91